Time;durP1;ratioP1;P1;durP2;ratioP2;P2;SDS_P1;SDS_P2;PMS_P1;PMS_P2;Temp;Humidity;BMP_temperature;BMP_pressure;BME280_temperature;BME280_humidity;BME280_pressure;Samples;Min_cycle;Max_cycle;Signal;HPM_P1;HPM_P2
2023/11/29 00:01:10;;;;;;;13.50;4.75;;;;;;;9.05;45.21;100330.56;5060193;28;20438;-58
2023/11/29 00:03:35;;;;;;;8.38;4.20;;;;;;;9.07;45.09;100331.28;5094932;28;20427;-58
2023/11/29 00:06:02;;;;;;;10.15;3.83;;;;;;;9.12;45.57;100329.06;5095433;28;20381;-57
2023/11/29 00:08:29;;;;;;;9.48;5.53;;;;;;;9.13;45.77;100320.03;5095421;28;20089;-58
2023/11/29 00:10:54;;;;;;;6.57;4.40;;;;;;;9.16;45.44;100319.78;5095532;28;20530;-58
2023/11/29 00:13:20;;;;;;;9.90;4.72;;;;;;;9.16;45.51;100317.13;5077254;28;20052;-58
2023/11/29 00:15:48;;;;;;;9.30;4.95;;;;;;;9.18;45.66;100312.50;5060012;28;20040;-58
2023/11/29 00:18:14;;;;;;;9.52;4.88;;;;;;;9.16;45.30;100293.91;5094636;28;20111;-58
2023/11/29 00:20:40;;;;;;;8.90;4.03;;;;;;;9.24;45.50;100295.94;5094619;28;20036;-58
2023/11/29 00:23:05;;;;;;;10.65;5.15;;;;;;;9.26;45.47;100289.50;5076358;28;20076;-58
2023/11/29 00:25:31;;;;;;;8.05;4.30;;;;;;;9.27;44.94;100295.66;5076343;28;20399;-58
2023/11/29 00:27:56;;;;;;;9.48;4.75;;;;;;;9.29;45.17;100288.38;5076884;28;20038;-58
2023/11/29 00:30:22;;;;;;;7.70;4.30;;;;;;;9.32;45.41;100288.09;5076439;28;20488;-59
2023/11/29 00:32:47;;;;;;;12.07;4.38;;;;;;;9.31;45.19;100289.06;5094674;28;20024;-58
2023/11/29 00:35:13;;;;;;;10.93;5.78;;;;;;;9.29;45.25;100288.38;5094404;28;20086;-58
2023/11/29 00:37:38;;;;;;;12.48;4.75;;;;;;;9.27;45.15;100276.94;5076234;28;20034;-57
2023/11/29 00:40:04;;;;;;;8.98;4.70;;;;;;;9.25;45.29;100271.75;5076022;28;20040;-58
2023/11/29 00:42:30;;;;;;;11.20;5.00;;;;;;;9.22;45.19;100265.81;5059307;28;20518;-58
2023/11/29 00:44:55;;;;;;;9.88;4.43;;;;;;;9.24;44.98;100274.56;5094111;28;20036;-58
2023/11/29 00:47:20;;;;;;;10.82;5.50;;;;;;;9.25;45.76;100266.41;5094136;28;20035;-58
2023/11/29 00:49:46;;;;;;;8.95;4.75;;;;;;;9.25;45.86;100260.22;5094098;28;20028;-58
2023/11/29 00:52:11;;;;;;;9.40;4.63;;;;;;;9.25;45.33;100265.56;5075749;28;20155;-58
2023/11/29 00:54:37;;;;;;;10.20;4.45;;;;;;;9.21;45.88;100253.47;5075814;28;20385;-58
2023/11/29 00:57:02;;;;;;;9.98;4.55;;;;;;;9.21;45.21;100253.47;5075390;28;20090;-58
2023/11/29 00:59:28;;;;;;;11.02;5.97;;;;;;;9.17;45.38;100234.19;5093570;28;20062;-57
2023/11/29 01:01:53;;;;;;;6.57;4.25;;;;;;;9.16;45.49;100236.97;5059098;28;20055;-57
2023/11/29 01:04:18;;;;;;;8.57;4.45;;;;;;;9.17;45.59;100236.84;5093746;28;20035;-58
2023/11/29 01:06:44;;;;;;;9.43;4.57;;;;;;;9.14;45.12;100220.22;5075607;28;20047;-58
2023/11/29 01:09:10;;;;;;;9.70;4.75;;;;;;;9.15;45.65;100232.63;5075641;28;20055;-58
2023/11/29 01:11:35;;;;;;;11.18;6.35;;;;;;;9.17;45.58;100230.66;5075889;28;20103;-58
2023/11/29 01:14:01;;;;;;;10.75;4.63;;;;;;;9.18;45.22;100227.88;5075578;28;20622;-58
2023/11/29 01:16:26;;;;;;;8.45;4.22;;;;;;;9.17;45.14;100226.16;5058795;28;20024;-58
2023/11/29 01:18:51;;;;;;;12.88;5.28;;;;;;;9.15;45.59;100216.59;5074249;28;20059;-58
2023/11/29 01:21:17;;;;;;;10.38;5.38;;;;;;;9.07;45.20;100198.53;5093337;28;20052;-58
2023/11/29 01:23:43;;;;;;;9.15;4.72;;;;;;;9.16;45.59;100220.94;5075313;28;20499;-58
2023/11/29 01:26:09;;;;;;;9.95;4.50;;;;;;;9.15;45.86;100217.44;5075115;28;20040;-58
2023/11/29 01:28:35;;;;;;;10.48;5.22;;;;;;;9.16;45.44;100215.59;5058488;28;20094;-58
2023/11/29 01:31:05;;;;;;;9.85;5.00;;;;;;;9.17;45.67;100206.59;5058800;28;20036;-58
2023/11/29 01:33:30;;;;;;;14.07;4.90;;;;;;;9.17;45.58;100204.78;5093246;28;20043;-58
2023/11/29 01:35:56;;;;;;;6.93;3.70;;;;;;;9.15;45.50;100197.88;5075176;28;20024;-58
2023/11/29 01:38:21;;;;;;;8.40;5.07;;;;;;;9.15;45.62;100204.09;5075046;28;20107;-58
2023/11/29 01:40:46;;;;;;;13.65;5.03;;;;;;;9.18;45.84;100200.28;5093138;28;20521;-58
2023/11/29 01:43:12;;;;;;;9.30;5.63;;;;;;;9.20;45.63;100204.50;5093249;28;20572;-58
2023/11/29 01:45:38;;;;;;;9.23;5.05;;;;;;;9.19;45.82;100192.13;5058318;28;20131;-58
2023/11/29 01:48:04;;;;;;;16.02;5.30;;;;;;;9.18;45.65;100194.94;5093110;28;20032;-58
2023/11/29 01:50:33;;;;;;;8.95;4.45;;;;;;;9.16;45.81;100187.06;5074682;28;20046;-58
2023/11/29 01:52:58;;;;;;;14.45;4.90;;;;;;;9.13;46.18;100186.47;5074880;28;20048;-58
2023/11/29 01:55:26;;;;;;;11.75;5.72;;;;;;;9.14;46.08;100183.69;5092713;28;20047;-58
2023/11/29 01:57:52;;;;;;;10.27;5.30;;;;;;;9.14;45.48;100188.16;5075139;28;20048;-58
2023/11/29 02:00:17;;;;;;;9.75;5.53;;;;;;;9.13;45.99;100183.78;5058085;28;20456;-58
2023/11/29 02:02:43;;;;;;;10.60;4.93;;;;;;;9.14;46.09;100182.81;5092733;28;20024;-58
2023/11/29 02:05:08;;;;;;;9.50;5.57;;;;;;;9.15;45.85;100171.16;5093129;28;20020;-58
2023/11/29 02:07:35;;;;;;;9.88;4.68;;;;;;;9.21;45.57;100178.66;5092363;28;20032;-57
2023/11/29 02:10:00;;;;;;;13.50;6.05;;;;;;;9.20;46.24;100171.59;5079749;28;20028;-58
2023/11/29 02:12:26;;;;;;;9.20;4.95;;;;;;;9.22;45.91;100169.63;5064797;28;20028;-58
2023/11/29 02:14:54;;;;;;;11.38;5.50;;;;;;;9.21;46.16;100165.28;5081188;28;20023;-58
2023/11/29 02:17:20;;;;;;;14.50;5.32;;;;;;;9.23;46.04;100168.66;5099799;28;20024;-58
2023/11/29 02:19:46;;;;;;;10.98;6.50;;;;;;;9.20;46.12;100158.25;5100943;28;20035;-58
2023/11/29 02:22:11;;;;;;;10.38;4.90;;;;;;;9.27;46.46;100167.38;5102376;28;20023;-63
2023/11/29 02:24:41;;;;;;;13.40;6.13;;;;;;;9.30;46.24;100164.44;5085136;28;20041;-58
2023/11/29 02:27:06;;;;;;;14.77;5.38;;;;;;;9.32;46.18;100159.81;5068054;28;20081;-58
2023/11/29 02:29:31;;;;;;;13.07;6.28;;;;;;;9.32;45.91;100160.66;5083863;28;20028;-58
2023/11/29 02:31:57;;;;;;;9.38;4.53;;;;;;;9.33;45.72;100150.81;5081072;28;20490;-58
2023/11/29 02:34:22;;;;;;;11.20;5.03;;;;;;;9.35;46.67;100144.34;5081238;28;20024;-58
2023/11/29 02:36:47;;;;;;;13.63;5.80;;;;;;;9.38;46.23;100137.88;5099317;28;20475;-58
2023/11/29 02:39:13;;;;;;;8.55;4.85;;;;;;;9.38;46.46;100132.53;5081266;28;20036;-58
2023/11/29 02:41:38;;;;;;;8.48;4.93;;;;;;;9.40;46.37;100135.06;5081488;28;20175;-58
2023/11/29 02:44:04;;;;;;;11.52;5.18;;;;;;;9.42;46.35;100127.75;5099436;28;20115;-58
2023/11/29 02:46:30;;;;;;;10.85;5.13;;;;;;;9.41;46.34;100132.25;5081135;28;20124;-58
2023/11/29 02:48:57;;;;;;;12.18;5.55;;;;;;;9.39;46.21;100115.50;5081130;28;20450;-57
2023/11/29 02:51:22;;;;;;;9.77;4.82;;;;;;;9.42;46.73;100111.72;5099536;28;20382;-58
2023/11/29 02:53:48;;;;;;;13.50;6.13;;;;;;;9.40;46.25;100114.53;5092958;28;20040;-58
2023/11/29 02:56:13;;;;;;;11.27;5.43;;;;;;;9.41;46.60;100105.53;5061005;28;20033;-57
2023/11/29 02:58:38;;;;;;;13.05;5.35;;;;;;;9.40;46.50;100103.84;5078843;28;20039;-58
2023/11/29 03:01:04;;;;;;;14.93;5.50;;;;;;;9.38;46.89;100103.13;5078813;28;20541;-58
2023/11/29 03:03:29;;;;;;;16.25;5.30;;;;;;;9.39;46.37;100102.16;5078521;28;20488;-58
2023/11/29 03:05:55;;;;;;;7.80;4.90;;;;;;;9.38;46.51;100100.44;5078771;28;20036;-58
2023/11/29 03:08:20;;;;;;;13.77;5.80;;;;;;;9.38;46.63;100112.00;5078916;28;20036;-58
2023/11/29 03:10:47;;;;;;;13.45;6.10;;;;;;;9.43;46.47;100118.75;5078763;28;20407;-58
2023/11/29 03:13:13;;;;;;;8.40;4.60;;;;;;;9.47;46.97;100120.16;5061173;28;20029;-58
2023/11/29 03:15:38;;;;;;;10.68;4.45;;;;;;;9.47;46.21;100110.31;5061108;28;20039;-58
2023/11/29 03:18:04;;;;;;;12.57;5.15;;;;;;;9.49;46.51;100105.66;5060834;28;20373;-58
2023/11/29 03:20:29;;;;;;;11.23;5.50;;;;;;;9.50;46.83;100103.84;5058376;28;20028;-58
2023/11/29 03:22:54;;;;;;;10.00;5.53;;;;;;;9.52;47.19;100101.91;5041129;28;20124;-58
2023/11/29 03:25:20;;;;;;;11.75;5.40;;;;;;;9.51;46.28;100085.00;5075373;28;20463;-58
2023/11/29 03:27:45;;;;;;;7.97;4.25;;;;;;;9.51;46.24;100092.19;5057519;28;20041;-58
2023/11/29 03:30:11;;;;;;;10.73;5.00;;;;;;;9.52;46.81;100092.03;5075074;28;20055;-58
2023/11/29 03:32:36;;;;;;;11.40;5.25;;;;;;;9.54;46.74;100090.06;5040785;28;20040;-59
2023/11/29 03:35:02;;;;;;;10.50;5.90;;;;;;;9.55;46.46;100075.69;5057316;28;20021;-58
2023/11/29 03:37:27;;;;;;;12.18;5.63;;;;;;;9.56;46.87;100077.41;5075314;28;20034;-58
2023/11/29 03:39:53;;;;;;;12.27;5.63;;;;;;;9.57;46.81;100079.09;5057321;28;20032;-58
2023/11/29 03:42:18;;;;;;;11.70;5.60;;;;;;;9.62;46.44;100098.22;5040357;28;20495;-58
2023/11/29 03:44:44;;;;;;;9.90;5.38;;;;;;;9.61;46.32;100104.56;5074942;28;20111;-58
2023/11/29 03:47:09;;;;;;;10.48;5.38;;;;;;;9.63;47.01;100110.59;5057100;28;20449;-58
2023/11/29 03:49:34;;;;;;;9.85;4.63;;;;;;;9.68;46.95;100103.03;5075052;28;20045;-58
2023/11/29 03:52:00;;;;;;;10.63;5.97;;;;;;;9.71;47.10;100102.75;5057123;28;20124;-58
2023/11/29 03:54:25;;;;;;;15.07;6.22;;;;;;;9.75;47.02;100098.78;5086429;28;20105;-58
2023/11/29 03:56:51;;;;;;;11.48;5.18;;;;;;;9.83;47.33;100101.59;5095237;28;20048;-58
2023/11/29 03:59:16;;;;;;;11.25;4.90;;;;;;;9.89;46.93;100102.84;5077051;28;20407;-58
2023/11/29 04:01:41;;;;;;;12.20;5.40;;;;;;;9.89;47.14;100095.66;5077763;28;20487;-58
2023/11/29 04:04:07;;;;;;;11.85;5.00;;;;;;;9.89;46.43;100084.97;5095580;28;20064;-58
2023/11/29 04:06:32;;;;;;;13.00;4.32;;;;;;;9.88;47.04;100061.06;5077342;28;20059;-58
2023/11/29 04:08:57;;;;;;;11.43;5.03;;;;;;;9.87;47.09;100064.69;5094777;28;20507;-57
2023/11/29 04:11:23;;;;;;;12.70;4.65;;;;;;;9.83;47.43;100045.41;5094918;28;20028;-57
2023/11/29 04:13:48;;;;;;;12.55;5.28;;;;;;;9.83;48.13;100047.25;5095068;28;20032;-58
2023/11/29 04:16:25;;;;;;;10.65;4.43;;;;;;;9.77;46.89;100031.78;5060501;28;20055;-58
2023/11/29 04:18:51;;;;;;;11.32;4.93;;;;;;;9.76;47.24;100035.44;5077373;28;20032;-57
2023/11/29 04:21:23;;;;;;;18.55;5.55;;;;;;;9.69;46.45;100023.63;5077037;28;20036;-57
2023/11/29 04:23:48;;;;;;;11.70;4.65;;;;;;;9.55;47.22;100011.53;5077038;28;20039;-58
2023/11/29 04:26:26;;;;;;;11.25;4.72;;;;;;;9.55;47.65;100030.25;5076935;28;20036;-58
2023/11/29 04:28:51;;;;;;;14.10;5.93;;;;;;;9.48;47.33;100026.47;5095222;28;20051;-58
2023/11/29 04:31:16;;;;;;;12.18;4.93;;;;;;;9.45;47.70;100031.25;5094968;28;20062;-58
2023/11/29 04:33:42;;;;;;;11.90;5.63;;;;;;;9.44;47.77;100024.22;5094838;28;20040;-58
2023/11/29 04:36:09;;;;;;;12.02;5.57;;;;;;;9.42;47.57;100023.50;5095223;28;20131;-58
2023/11/29 04:38:34;;;;;;;16.13;4.78;;;;;;;9.40;48.13;100014.81;5077438;28;20032;-58
2023/11/29 04:41:00;;;;;;;22.58;6.05;;;;;;;9.39;48.23;100013.97;5077043;28;20044;-58
2023/11/29 04:43:26;;;;;;;11.32;4.88;;;;;;;9.41;47.67;100006.63;5077156;28;20516;-60
2023/11/29 04:45:51;;;;;;;9.55;5.05;;;;;;;9.44;48.25;100006.34;5077070;28;20510;-58
2023/11/29 04:48:16;;;;;;;11.20;5.28;;;;;;;9.43;47.80;99985.97;5078474;28;20036;-57
2023/11/29 04:50:42;;;;;;;12.35;5.40;;;;;;;9.47;47.89;99997.19;5078050;28;20039;-58
2023/11/29 04:53:07;;;;;;;13.27;5.78;;;;;;;9.46;47.80;99979.50;5075735;28;20035;-57
2023/11/29 04:55:32;;;;;;;10.88;5.43;;;;;;;9.47;47.63;99982.00;5075882;28;20085;-58
2023/11/29 04:57:58;;;;;;;9.27;4.88;;;;;;;9.50;48.28;99981.72;5076001;28;20093;-58
2023/11/29 05:00:23;;;;;;;11.57;5.50;;;;;;;9.53;48.23;99986.78;5076064;28;20426;-58
2023/11/29 05:02:48;;;;;;;12.32;5.35;;;;;;;9.53;48.12;99992.13;5093882;28;20115;-58
2023/11/29 05:05:14;;;;;;;11.43;5.18;;;;;;;9.57;48.28;99995.38;5092533;28;20036;-58
2023/11/29 05:07:40;;;;;;;13.90;5.18;;;;;;;9.59;48.79;99996.91;5075783;28;20062;-58
2023/11/29 05:10:07;;;;;;;14.13;5.00;;;;;;;9.57;48.52;99998.91;5093788;28;20056;-58
2023/11/29 05:12:33;;;;;;;7.97;4.75;;;;;;;9.55;48.34;99990.16;5076042;28;20056;-58
2023/11/29 05:14:58;;;;;;;14.32;4.75;;;;;;;9.53;48.43;99989.47;5075623;28;20028;-58
2023/11/29 05:17:24;;;;;;;9.75;4.68;;;;;;;9.52;48.49;99985.09;5093434;28;20036;-58
2023/11/29 05:19:50;;;;;;;7.30;3.70;;;;;;;9.52;48.73;99974.41;5093573;28;20510;-58
2023/11/29 05:22:15;;;;;;;13.07;5.13;;;;;;;9.49;48.27;99973.88;5093444;28;20456;-58
2023/11/29 05:24:42;;;;;;;8.65;3.92;;;;;;;9.46;48.63;99964.31;5093340;28;20107;-58
2023/11/29 05:27:08;;;;;;;7.90;4.10;;;;;;;9.46;48.60;99968.81;5075318;28;20028;-58
2023/11/29 05:29:33;;;;;;;14.15;4.22;;;;;;;9.44;49.33;99958.25;5075355;28;20537;-59
2023/11/29 05:31:59;;;;;;;12.35;4.50;;;;;;;9.48;48.33;99964.16;5093398;28;20086;-58
2023/11/29 05:34:24;;;;;;;10.70;5.10;;;;;;;9.47;48.62;99965.97;5093223;28;20476;-58
2023/11/29 05:36:49;;;;;;;11.65;5.10;;;;;;;9.45;48.63;99972.44;5075258;28;20036;-58
2023/11/29 05:39:15;;;;;;;8.82;4.68;;;;;;;9.45;48.57;99975.97;5058454;28;20028;-59
2023/11/29 05:41:40;;;;;;;13.38;6.18;;;;;;;9.47;48.91;99971.31;5075207;28;20036;-58
2023/11/29 05:44:05;;;;;;;10.60;4.55;;;;;;;9.50;48.95;99970.19;5092616;28;20503;-59
2023/11/29 05:46:32;;;;;;;11.70;4.70;;;;;;;9.50;49.07;99973.72;5093120;28;20407;-58
2023/11/29 05:48:59;;;;;;;7.47;3.90;;;;;;;9.45;49.10;99970.63;5093685;28;20032;-58
2023/11/29 05:51:27;;;;;;;10.15;4.28;;;;;;;9.53;49.24;99981.44;5075291;28;20032;-58
2023/11/29 05:53:52;;;;;;;8.68;4.43;;;;;;;9.53;48.96;99976.09;5068787;28;20499;-58
2023/11/29 05:56:20;;;;;;;10.57;4.25;;;;;;;9.54;49.13;99988.50;5093023;28;20089;-58
2023/11/29 05:58:45;;;;;;;10.82;5.00;;;;;;;9.61;49.12;99978.03;5074940;28;20039;-58
2023/11/29 06:01:11;;;;;;;9.23;4.38;;;;;;;9.62;48.68;99975.25;5074865;28;20113;-58
2023/11/29 06:03:37;;;;;;;12.93;4.43;;;;;;;9.66;49.39;99976.63;5092305;28;20043;-58
2023/11/29 06:06:02;;;;;;;9.88;4.35;;;;;;;9.71;49.03;99965.50;5092763;28;20032;-58
2023/11/29 06:08:27;;;;;;;6.60;3.47;;;;;;;9.71;48.58;99953.00;5074583;28;20036;-58
2023/11/29 06:10:53;;;;;;;7.93;4.72;;;;;;;9.75;48.85;99964.22;5092836;28;20055;-58
2023/11/29 06:13:20;;;;;;;13.20;5.07;;;;;;;9.76;48.62;99963.25;5074928;28;20032;-57
2023/11/29 06:15:46;;;;;;;8.45;4.38;;;;;;;9.77;49.19;99955.06;5075167;28;20044;-59
2023/11/29 06:18:15;;;;;;;10.07;3.60;;;;;;;9.78;49.13;99958.59;5058010;28;20032;-58
2023/11/29 06:20:40;;;;;;;9.85;4.35;;;;;;;9.75;48.92;99959.72;5075469;28;20036;-58
2023/11/29 06:23:07;;;;;;;11.90;4.28;;;;;;;9.77;49.20;99957.72;5057844;28;20033;-58
2023/11/29 06:25:33;;;;;;;5.70;3.30;;;;;;;9.75;49.10;99954.38;5057894;28;20032;-58
2023/11/29 06:27:59;;;;;;;11.25;4.20;;;;;;;9.77;49.04;99952.38;5074911;28;20105;-58
2023/11/29 06:30:24;;;;;;;20.13;8.30;;;;;;;9.75;49.07;99953.53;5092787;28;20060;-58
2023/11/29 06:32:50;;;;;;;10.77;5.75;;;;;;;9.74;49.06;99958.03;5074555;28;20566;-58
2023/11/29 06:35:16;;;;;;;10.73;6.05;;;;;;;9.73;49.23;99958.19;5074731;28;20032;-58
2023/11/29 06:37:47;;;;;;;21.30;8.73;;;;;;;9.74;49.14;99958.03;5074396;28;20115;-58
2023/11/29 06:40:16;;;;;;;14.20;7.60;;;;;;;9.72;49.42;99960.00;5058593;28;20036;-58
2023/11/29 06:42:43;;;;;;;12.75;5.72;;;;;;;9.73;49.77;99969.72;5075153;28;20032;-59
2023/11/29 06:45:12;;;;;;;8.15;4.65;;;;;;;9.73;49.24;99972.41;5074689;28;20032;-62
2023/11/29 06:47:38;;;;;;;13.63;4.78;;;;;;;9.74;49.40;99967.91;5092774;28;20028;-61
2023/11/29 06:50:04;;;;;;;9.23;4.25;;;;;;;9.76;49.75;99972.13;5092647;28;20028;-61
2023/11/29 06:52:30;;;;;;;12.52;4.68;;;;;;;9.75;49.96;99964.22;5091738;28;20032;-61
2023/11/29 06:54:55;;;;;;;9.30;3.85;;;;;;;9.77;49.36;99967.63;5071962;28;20048;-61
2023/11/29 06:57:21;;;;;;;8.43;4.15;;;;;;;9.78;49.37;99964.78;5078249;28;20043;-61
2023/11/29 06:59:46;;;;;;;10.20;3.97;;;;;;;9.81;49.48;99974.34;5078292;28;20447;-61
2023/11/29 07:02:12;;;;;;;9.70;4.85;;;;;;;9.84;49.48;99972.22;5078202;28;20028;-61
2023/11/29 07:04:38;;;;;;;8.90;3.85;;;;;;;9.87;49.48;99969.25;5078206;28;20419;-61
2023/11/29 07:07:03;;;;;;;7.85;3.60;;;;;;;9.92;50.01;99979.50;5096356;28;20130;-62
2023/11/29 07:09:29;;;;;;;6.38;3.33;;;;;;;9.92;49.68;99982.19;5096186;28;20032;-61
2023/11/29 07:11:54;;;;;;;5.45;3.40;;;;;;;9.93;49.49;99995.44;5096028;28;20036;-63
2023/11/29 07:14:20;;;;;;;7.18;3.40;;;;;;;9.93;49.76;99995.44;5078707;28;20445;-61
2023/11/29 07:16:46;;;;;;;5.90;3.65;;;;;;;9.95;49.69;100001.47;5096563;28;20040;-62
2023/11/29 07:19:11;;;;;;;7.38;3.38;;;;;;;9.95;49.78;99998.78;5096679;28;20403;-61
2023/11/29 07:21:36;;;;;;;12.60;3.97;;;;;;;9.97;49.94;100000.50;5077651;28;20036;-62
2023/11/29 07:24:02;;;;;;;10.27;3.55;;;;;;;9.98;49.71;99997.66;5078175;28;20028;-62
2023/11/29 07:26:27;;;;;;;5.93;3.58;;;;;;;9.98;50.28;99994.13;5095839;28;20467;-62
2023/11/29 07:28:53;;;;;;;8.77;2.92;;;;;;;10.05;49.81;100008.63;5076947;28;20082;-62
2023/11/29 07:31:18;;;;;;;9.15;4.57;;;;;;;10.09;49.99;100012.69;5060727;28;20020;-61
2023/11/29 07:33:43;;;;;;;10.40;4.55;;;;;;;10.08;49.74;100008.34;5095401;28;20027;-62
2023/11/29 07:36:12;;;;;;;7.40;3.92;;;;;;;10.10;49.80;100006.34;5060970;28;20488;-62
2023/11/29 07:38:38;;;;;;;7.80;3.53;;;;;;;10.10;49.70;100009.88;5060946;28;20066;-61
2023/11/29 07:41:03;;;;;;;8.50;4.80;;;;;;;10.09;50.07;100004.66;5078106;28;20130;-61
2023/11/29 07:43:29;;;;;;;8.13;5.00;;;;;;;10.12;49.43;100015.06;5077332;28;20523;-62
2023/11/29 07:45:54;;;;;;;9.32;5.25;;;;;;;10.11;49.92;100008.88;5077438;28;20032;-62
2023/11/29 07:48:24;;;;;;;11.60;5.47;;;;;;;10.09;50.11;100010.00;5095261;28;20056;-62
2023/11/29 07:50:50;;;;;;;6.78;3.50;;;;;;;10.16;50.01;100013.84;5077336;28;20373;-62
2023/11/29 07:53:16;;;;;;;9.77;5.38;;;;;;;10.20;49.88;100009.84;5077370;28;20089;-62
2023/11/29 07:55:41;;;;;;;7.80;4.25;;;;;;;10.19;49.92;100006.34;5077229;28;20047;-58
2023/11/29 07:58:07;;;;;;;6.18;3.92;;;;;;;10.22;49.82;100014.06;5077314;28;20098;-58
2023/11/29 08:00:33;;;;;;;9.60;3.80;;;;;;;10.23;49.47;100007.75;5076907;28;20418;-58
2023/11/29 08:02:59;;;;;;;5.28;3.72;;;;;;;10.27;50.05;100009.13;5077347;28;20028;-58
2023/11/29 08:05:27;;;;;;;7.47;3.83;;;;;;;10.27;49.66;100014.47;5060371;28;20471;-58
2023/11/29 08:07:55;;;;;;;7.50;4.45;;;;;;;10.28;49.45;100016.16;5080349;28;20037;-58
2023/11/29 08:10:20;;;;;;;7.88;3.95;;;;;;;10.30;49.92;100013.34;5084226;28;20098;-58
2023/11/29 08:12:46;;;;;;;10.32;3.92;;;;;;;10.27;49.99;100019.81;5095230;28;20044;-58
2023/11/29 08:15:12;;;;;;;9.48;3.55;;;;;;;10.33;49.65;100026.44;5095197;28;20038;-57
2023/11/29 08:17:37;;;;;;;5.18;3.28;;;;;;;10.35;50.06;100016.44;5075937;28;20033;-58
2023/11/29 08:20:05;;;;;;;4.50;2.92;;;;;;;10.39;49.85;100028.50;5056758;28;20055;-59
2023/11/29 08:22:31;;;;;;;5.25;3.08;;;;;;;10.41;49.88;100029.22;5057136;28;20500;-58
2023/11/29 08:24:56;;;;;;;9.68;4.00;;;;;;;10.46;49.09;100029.63;5074368;28;20082;-58
2023/11/29 08:27:23;;;;;;;5.13;3.45;;;;;;;10.47;49.99;100023.25;5074262;28;20435;-58
2023/11/29 08:29:49;;;;;;;7.50;3.50;;;;;;;10.55;49.73;100022.53;5058090;28;20448;-58
2023/11/29 08:32:15;;;;;;;5.55;3.08;;;;;;;10.64;49.84;100021.63;5080592;28;20060;-58
2023/11/29 08:34:40;;;;;;;7.07;3.90;;;;;;;10.77;49.73;100016.78;5056243;28;20415;-58
2023/11/29 08:37:06;;;;;;;9.30;3.55;;;;;;;10.88;49.41;100019.22;5074091;28;20086;-63
2023/11/29 08:39:31;;;;;;;6.55;3.58;;;;;;;10.96;49.04;100022.84;5056240;28;20119;-58
2023/11/29 08:41:57;;;;;;;7.57;3.72;;;;;;;11.11;49.58;100021.31;5056029;28;20035;-58
2023/11/29 08:44:22;;;;;;;4.00;2.60;;;;;;;11.17;49.40;100019.03;5056318;28;20409;-58
2023/11/29 08:46:48;;;;;;;6.00;2.60;;;;;;;11.25;49.49;100016.44;5055937;28;20036;-58
2023/11/29 08:49:15;;;;;;;4.28;2.88;;;;;;;11.32;49.37;100017.50;5055931;28;20032;-58
2023/11/29 08:51:42;;;;;;;5.55;2.88;;;;;;;11.45;49.43;100026.81;5055985;28;20036;-58
2023/11/29 08:54:07;;;;;;;4.57;2.83;;;;;;;11.55;48.57;100027.59;5039082;28;20094;-58
2023/11/29 08:56:33;;;;;;;5.50;2.50;;;;;;;11.55;49.08;100040.16;5073534;28;20503;-59
2023/11/29 08:58:58;;;;;;;5.18;2.67;;;;;;;11.51;49.59;100034.25;5055837;28;20032;-59
2023/11/29 09:01:24;;;;;;;6.70;2.75;;;;;;;11.48;49.69;100039.94;5055766;28;20491;-58
2023/11/29 09:03:49;;;;;;;4.95;2.65;;;;;;;11.47;49.10;100050.81;5055620;28;20037;-59
2023/11/29 09:06:16;;;;;;;4.32;2.83;;;;;;;11.42;49.69;100045.06;5055844;28;20403;-58
2023/11/29 09:08:42;;;;;;;11.52;3.63;;;;;;;11.38;49.34;100055.25;5055763;28;20033;-58
2023/11/29 09:11:08;;;;;;;5.38;2.85;;;;;;;11.38;49.38;100059.78;5055720;28;20064;-58
2023/11/29 09:13:35;;;;;;;9.20;3.58;;;;;;;11.35;48.93;100054.72;5073455;28;20036;-58
2023/11/29 09:16:00;;;;;;;11.20;6.55;;;;;;;11.34;49.07;100055.69;5055643;28;20032;-58
2023/11/29 09:18:26;;;;;;;6.25;3.47;;;;;;;11.34;48.72;100055.69;5063547;28;20039;-58
2023/11/29 09:20:51;;;;;;;5.63;3.40;;;;;;;11.32;48.68;100060.38;5075368;28;20092;-58
2023/11/29 09:23:17;;;;;;;8.98;3.80;;;;;;;11.34;49.16;100063.75;5075407;28;20039;-58
2023/11/29 09:25:43;;;;;;;6.03;3.15;;;;;;;11.33;49.39;100067.44;5075527;28;20044;-58
2023/11/29 09:28:13;;;;;;;4.70;3.05;;;;;;;11.33;49.37;100065.59;5061809;28;20549;-58
2023/11/29 09:30:40;;;;;;;4.32;3.17;;;;;;;11.32;48.89;100060.38;5056041;28;20500;-58
2023/11/29 09:33:06;;;;;;;6.47;3.33;;;;;;;11.35;49.11;100068.97;5073214;28;20119;-58
2023/11/29 09:35:31;;;;;;;6.45;3.17;;;;;;;11.37;49.12;100066.13;5055340;28;20052;-58
2023/11/29 09:37:56;;;;;;;7.32;3.28;;;;;;;11.41;49.17;100078.25;5055107;28;20033;-58
2023/11/29 09:40:22;;;;;;;4.55;2.78;;;;;;;11.49;49.45;100078.31;5073144;28;20035;-58
2023/11/29 09:42:47;;;;;;;4.78;2.42;;;;;;;11.53;48.55;100079.72;5038454;28;20032;-58
2023/11/29 09:45:20;;;;;;;8.00;3.40;;;;;;;11.59;48.60;100084.44;5055046;28;20056;-58
2023/11/29 09:47:46;;;;;;;8.25;4.18;;;;;;;11.68;48.71;100075.47;5038856;28;20039;-58
2023/11/29 09:50:12;;;;;;;6.15;2.95;;;;;;;11.76;49.42;100077.41;5037997;28;20032;-58
2023/11/29 09:52:37;;;;;;;8.00;2.75;;;;;;;11.74;48.84;100074.88;5054955;28;20039;-58
2023/11/29 09:55:03;;;;;;;4.22;2.75;;;;;;;11.83;48.71;100081.16;5054784;28;20415;-59
2023/11/29 09:57:29;;;;;;;4.65;2.17;;;;;;;11.95;48.37;100074.56;5054995;28;20041;-58
2023/11/29 09:59:55;;;;;;;4.15;2.28;;;;;;;12.08;48.00;100075.81;5055145;28;20037;-58
2023/11/29 10:02:21;;;;;;;7.57;2.72;;;;;;;12.26;48.76;100068.53;5054800;28;20044;-58
2023/11/29 10:04:47;;;;;;;4.22;2.33;;;;;;;12.32;48.29;100056.31;5072836;28;20043;-58
2023/11/29 10:07:12;;;;;;;4.93;1.92;;;;;;;12.48;48.51;100060.97;5054940;28;20111;-59
2023/11/29 10:09:38;;;;;;;3.28;1.92;;;;;;;12.63;48.56;100059.34;5072630;28;20078;-59
2023/11/29 10:12:08;;;;;;;2.63;2.25;;;;;;;12.90;47.84;100072.53;5037829;28;20033;-58
2023/11/29 10:14:38;;;;;;;3.10;2.58;;;;;;;12.80;47.91;100072.69;5054918;28;20037;-59
2023/11/29 10:17:03;;;;;;;3.60;2.67;;;;;;;12.73;48.50;100063.56;5038265;28;20399;-59
2023/11/29 10:19:30;;;;;;;16.75;6.55;;;;;;;12.66;47.57;100062.56;5054608;28;20039;-59
2023/11/29 10:21:55;;;;;;;16.08;7.90;;;;;;;12.69;48.17;100072.13;5037926;28;20057;-58
2023/11/29 10:24:24;;;;;;;17.88;8.20;;;;;;;12.64;49.02;100077.16;5072315;28;20044;-59
2023/11/29 10:26:50;;;;;;;24.20;10.13;;;;;;;12.54;48.36;100071.03;5054682;28;20065;-59
2023/11/29 10:29:16;;;;;;;12.70;5.03;;;;;;;12.50;48.52;100075.06;5054487;28;20033;-59
2023/11/29 10:31:42;;;;;;;10.85;4.88;;;;;;;12.47;47.72;100070.88;5076458;28;20082;-58
2023/11/29 10:34:10;;;;;;;7.07;3.50;;;;;;;12.46;49.00;100062.94;5058614;28;20100;-59
2023/11/29 10:36:37;;;;;;;2.72;2.00;;;;;;;12.43;48.27;100065.94;5058596;28;20033;-59
2023/11/29 10:39:04;;;;;;;5.28;2.42;;;;;;;12.40;48.88;100067.13;5041885;28;20115;-59
2023/11/29 10:41:32;;;;;;;6.38;4.03;;;;;;;12.47;47.89;100060.13;5058758;28;20107;-59
2023/11/29 10:44:00;;;;;;;5.63;3.13;;;;;;;12.48;48.74;100055.59;5058506;28;20025;-59
2023/11/29 10:46:29;;;;;;;4.63;2.10;;;;;;;12.46;48.25;100058.41;5058468;28;20039;-59
2023/11/29 10:49:09;;;;;;;5.22;2.97;;;;;;;12.42;47.93;100061.59;5058379;28;20024;-60
2023/11/29 10:51:34;;;;;;;3.67;2.47;;;;;;;12.45;48.41;100058.59;5041814;28;20037;-59
2023/11/29 10:54:00;;;;;;;4.82;3.22;;;;;;;12.46;49.19;100063.78;5058186;28;20055;-59
2023/11/29 10:56:26;;;;;;;5.55;2.30;;;;;;;12.42;47.78;100062.44;5058100;28;20464;-59
2023/11/29 10:59:10;;;;;;;5.53;3.00;;;;;;;12.34;48.03;100065.06;5058123;28;20119;-59
2023/11/29 11:01:36;;;;;;;6.20;3.53;;;;;;;12.35;48.32;100065.91;5041339;28;20064;-59
2023/11/29 11:04:03;;;;;;;5.70;3.65;;;;;;;12.30;47.73;100052.13;5058136;28;20142;-59
2023/11/29 11:06:29;;;;;;;6.25;3.25;;;;;;;12.36;47.85;100059.53;5058427;28;20024;-59
2023/11/29 11:08:56;;;;;;;5.90;3.60;;;;;;;12.36;47.74;100064.91;5076023;28;20027;-59
2023/11/29 11:11:39;;;;;;;4.28;2.88;;;;;;;12.36;48.46;100067.59;5041177;28;20028;-59
2023/11/29 11:14:04;;;;;;;;;;;;;;;12.36;47.95;100072.97;5058232;28;20029;-59
2023/11/29 11:16:30;;;;;;;6.88;3.20;;;;;;;12.33;47.92;100068.75;5075687;28;20095;-59
2023/11/29 11:18:55;;;;;;;4.63;2.67;;;;;;;12.32;48.81;100071.59;5057770;28;20025;-58
2023/11/29 11:21:29;;;;;;;4.80;2.67;;;;;;;12.33;48.65;100067.91;5057584;28;20166;-58
2023/11/29 11:23:54;;;;;;;4.30;2.13;;;;;;;12.28;48.16;100074.59;5058169;28;20032;-59